Terminal Aerodrome Forecast
Issued by NWS Denver/Boulder, CO

Home | Current Version | Previous Version | Text Only | Print | Product List | Glossary On
Versions: 1 2 3 4 5 6 7 8 9 10 11 12 13 14 15 16 17 18 19 20 21 22 23 24 25 26 27 28 29 30 31 32 33 34 35 36 37 38 39 40 41 42 43 44 45 46 47 48 49 50
000
FTUS45 KBOU 090251 AAB
TAFDEN
TAF AMD
KDEN 090251Z 0903/1006 17010KT P6SM FEW060 SCT120 SCT200
     FM090600 21010KT P6SM FEW070 SCT150
     FM091500 24005KT P6SM FEW060 SCT110
     FM091800 29010KT P6SM FEW080 SCT120
     FM092300 34009KT P6SM VCTS SCT080CB BKN120
     FM100200 23008KT P6SM FEW080 BKN110=

USA.gov is the U.S. government's official web portal to all federal, state and local government web resources and services.